createdAt,value
2023-03-02T00:01:09.846Z,100.00
2023-03-02T00:03:40.661Z,100.00
2023-03-02T00:06:09.040Z,100.00
2023-03-02T00:08:36.438Z,100.00
2023-03-02T00:11:03.200Z,100.00
2023-03-02T00:13:30.949Z,100.00
2023-03-02T00:15:57.591Z,100.00
2023-03-02T00:18:24.296Z,100.00
2023-03-02T00:20:50.964Z,100.00
2023-03-02T00:23:17.624Z,100.00
2023-03-02T00:25:44.131Z,100.00
2023-03-02T00:28:10.764Z,100.00
2023-03-02T00:30:40.292Z,100.00
2023-03-02T00:33:06.840Z,100.00
2023-03-02T00:35:40.914Z,100.00
2023-03-02T00:38:08.428Z,100.00
2023-03-02T00:40:36.055Z,100.00
2023-03-02T00:43:02.641Z,100.00
2023-03-02T00:45:29.192Z,100.00
2023-03-02T00:47:55.947Z,100.00
2023-03-02T00:50:22.893Z,100.00
2023-03-02T00:52:49.438Z,100.00
2023-03-02T00:55:16.025Z,100.00
2023-03-02T00:57:42.636Z,100.00
2023-03-02T01:00:10.162Z,100.00
2023-03-02T01:02:39.116Z,100.00
2023-03-02T01:05:06.046Z,100.00
2023-03-02T01:07:33.225Z,100.00
2023-03-02T01:09:59.746Z,100.00
2023-03-02T01:12:26.308Z,100.00
2023-03-02T01:14:52.934Z,100.00
2023-03-02T01:17:22.049Z,100.00
2023-03-02T01:19:48.692Z,100.00
2023-03-02T01:22:15.227Z,100.00
2023-03-02T01:24:41.735Z,100.00
2023-03-02T01:27:09.606Z,100.00
2023-03-02T01:29:36.692Z,100.00
2023-03-02T01:32:03.777Z,100.00
2023-03-02T01:34:30.484Z,100.00
2023-03-02T01:36:57.016Z,100.00
2023-03-02T01:39:23.673Z,100.00
2023-03-02T01:41:52.426Z,100.00
2023-03-02T01:44:46.374Z,100.00
2023-03-02T01:47:31.665Z,100.00
2023-03-02T01:50:23.303Z,100.00
2023-03-02T01:52:51.140Z,100.00
2023-03-02T01:55:24.768Z,100.00
2023-03-02T01:57:53.463Z,100.00
2023-03-02T02:00:27.244Z,100.00
2023-03-02T02:02:57.034Z,100.00
2023-03-02T02:05:26.846Z,100.00
2023-03-02T02:07:53.395Z,100.00
2023-03-02T02:10:20.238Z,100.00
2023-03-02T02:12:46.751Z,100.00
2023-03-02T02:15:13.305Z,100.00
2023-03-02T02:17:40.500Z,100.00
2023-03-02T02:20:16.466Z,100.00
2023-03-02T02:22:52.101Z,100.00
2023-03-02T02:25:41.835Z,100.00
2023-03-02T02:28:16.818Z,100.00
2023-03-02T02:30:44.608Z,100.00
2023-03-02T02:33:16.884Z,100.00
2023-03-02T02:35:47.235Z,100.00
2023-03-02T02:38:19.322Z,100.00
2023-03-02T02:40:51.450Z,100.00
2023-03-02T02:43:20.594Z,100.00
2023-03-02T02:45:51.820Z,100.00
2023-03-02T02:48:21.108Z,100.00
2023-03-02T02:50:47.658Z,100.00
2023-03-02T02:53:22.134Z,100.00
2023-03-02T02:55:51.021Z,100.00
2023-03-02T02:58:41.986Z,100.00
2023-03-02T03:01:11.305Z,100.00
2023-03-02T03:03:39.484Z,100.00
2023-03-02T03:06:12.719Z,100.00
2023-03-02T03:09:00.405Z,100.00
2023-03-02T03:11:29.966Z,100.00
2023-03-02T03:14:10.106Z,100.00
2023-03-02T03:16:38.861Z,100.00
2023-03-02T03:19:18.431Z,100.00
2023-03-02T03:21:45.520Z,100.00
2023-03-02T03:24:12.107Z,100.00
2023-03-02T03:26:38.828Z,100.00
2023-03-02T03:29:05.604Z,100.00
2023-03-02T03:31:32.152Z,100.00
2023-03-02T03:34:00.683Z,100.00
2023-03-02T03:36:29.172Z,100.00
2023-03-02T03:38:57.068Z,100.00
2023-03-02T03:41:23.958Z,100.00
2023-03-02T03:43:51.345Z,100.00
2023-03-02T03:46:18.581Z,100.00
2023-03-02T03:48:45.285Z,100.00
2023-03-02T03:51:11.916Z,100.00
2023-03-02T03:53:38.730Z,100.00
2023-03-02T03:56:05.604Z,100.00
2023-03-02T03:58:32.672Z,100.00
2023-03-02T04:00:59.362Z,100.00
2023-03-02T04:03:26.377Z,100.00
2023-03-02T04:05:53.303Z,100.00
2023-03-02T04:08:19.956Z,100.00
2023-03-02T04:10:46.649Z,100.00
2023-03-02T04:13:14.564Z,100.00
2023-03-02T04:15:42.304Z,100.00
2023-03-02T04:18:08.879Z,100.00
2023-03-02T04:20:35.695Z,100.00
2023-03-02T04:23:02.217Z,100.00
2023-03-02T04:25:30.273Z,100.00
2023-03-02T04:27:57.269Z,100.00
2023-03-02T04:30:26.348Z,100.00
2023-03-02T04:32:52.941Z,100.00
2023-03-02T04:35:19.634Z,100.00
2023-03-02T04:37:47.033Z,100.00
2023-03-02T04:40:15.305Z,100.00
2023-03-02T04:42:41.946Z,100.00
2023-03-02T04:45:09.020Z,100.00
2023-03-02T04:47:35.617Z,100.00
2023-03-02T04:50:02.237Z,100.00
2023-03-02T04:52:28.768Z,100.00
2023-03-02T04:54:55.358Z,100.00
2023-03-02T04:57:22.007Z,100.00
2023-03-02T04:59:48.525Z,100.00
2023-03-02T05:02:15.123Z,100.00
2023-03-02T05:04:42.485Z,100.00
2023-03-02T05:07:09.311Z,100.00
2023-03-02T05:09:35.936Z,100.00
2023-03-02T05:12:02.643Z,100.00
2023-03-02T05:14:29.579Z,100.00
2023-03-02T05:16:56.578Z,100.00
2023-03-02T05:19:23.390Z,100.00
2023-03-02T05:21:50.042Z,100.00
2023-03-02T05:24:16.965Z,100.00
2023-03-02T05:26:43.660Z,100.00
2023-03-02T05:29:10.218Z,100.00
2023-03-02T05:31:40.640Z,100.00
2023-03-02T05:34:09.553Z,100.00
2023-03-02T05:36:37.089Z,100.00
2023-03-02T05:39:04.976Z,100.00
2023-03-02T05:41:31.656Z,100.00
2023-03-02T05:43:58.462Z,100.00
2023-03-02T05:46:25.363Z,100.00
2023-03-02T05:48:52.274Z,100.00
2023-03-02T05:51:18.859Z,100.00
2023-03-02T05:53:45.414Z,100.00
2023-03-02T05:56:12.084Z,100.00
2023-03-02T05:58:38.670Z,100.00
2023-03-02T06:01:09.530Z,100.00
2023-03-02T06:03:36.090Z,100.00
2023-03-02T06:06:02.737Z,100.00
2023-03-02T06:08:29.278Z,100.00
2023-03-02T06:10:57.009Z,100.00
2023-03-02T06:13:23.610Z,100.00
2023-03-02T06:15:50.145Z,100.00
2023-03-02T06:18:16.958Z,100.00
2023-03-02T06:20:43.995Z,100.00
2023-03-02T06:23:11.703Z,100.00
2023-03-02T06:25:41.340Z,100.00
2023-03-02T06:28:07.868Z,100.00
2023-03-02T06:30:34.403Z,100.00
2023-03-02T06:33:01.675Z,100.00
2023-03-02T06:35:29.090Z,100.00
2023-03-02T06:37:55.716Z,100.00
2023-03-02T06:40:22.310Z,100.00
2023-03-02T06:42:48.982Z,100.00
2023-03-02T06:45:15.632Z,100.00
2023-03-02T06:47:42.216Z,100.00
2023-03-02T06:50:09.790Z,100.00
2023-03-02T06:52:36.467Z,100.00
2023-03-02T06:55:03.580Z,100.00
2023-03-02T06:57:33.885Z,100.00
2023-03-02T07:00:11.200Z,100.00
2023-03-02T07:02:37.990Z,100.00
2023-03-02T07:05:05.938Z,100.00
2023-03-02T07:07:32.595Z,100.00
2023-03-02T07:09:59.143Z,100.00
2023-03-02T07:12:25.696Z,100.00
2023-03-02T07:14:52.344Z,100.00
2023-03-02T07:17:18.931Z,100.00
2023-03-02T07:19:45.443Z,100.00
2023-03-02T07:22:12.015Z,100.00
2023-03-02T07:24:38.555Z,100.00
2023-03-02T07:27:05.077Z,100.00
2023-03-02T07:29:31.655Z,100.00
2023-03-02T07:32:00.949Z,100.00
2023-03-02T07:34:27.809Z,100.00
2023-03-02T07:36:54.413Z,100.00
2023-03-02T07:39:21.290Z,100.00
2023-03-02T07:41:47.976Z,100.00
2023-03-02T07:44:14.990Z,100.00
2023-03-02T07:46:41.672Z,100.00
2023-03-02T07:49:08.339Z,100.00
2023-03-02T07:51:35.022Z,100.00
2023-03-02T07:54:02.890Z,100.00
2023-03-02T07:56:29.596Z,100.00
2023-03-02T07:58:56.315Z,100.00
2023-03-02T08:01:23.135Z,100.00
2023-03-02T08:03:49.767Z,100.00
2023-03-02T08:06:16.385Z,100.00
2023-03-02T08:08:42.916Z,100.00
2023-03-02T08:11:13.380Z,100.00
2023-03-02T08:13:40.573Z,100.00
2023-03-02T08:16:09.852Z,100.00
2023-03-02T08:18:37.486Z,100.00
2023-03-02T08:21:05.304Z,100.00
2023-03-02T08:23:31.872Z,100.00
2023-03-02T08:25:58.415Z,100.00
2023-03-02T08:28:24.999Z,100.00
2023-03-02T08:30:56.712Z,100.00
2023-03-02T08:33:23.299Z,100.00
2023-03-02T08:36:02.173Z,100.00
2023-03-02T08:38:29.558Z,100.00
2023-03-02T08:40:56.442Z,100.00
2023-03-02T08:43:25.155Z,100.00
2023-03-02T08:45:53.339Z,100.00
2023-03-02T08:48:21.074Z,100.00
2023-03-02T08:51:01.947Z,100.00
2023-03-02T08:53:30.667Z,100.00
2023-03-02T08:55:57.295Z,100.00
2023-03-02T08:58:24.017Z,100.00
2023-03-02T09:00:52.093Z,100.00
2023-03-02T09:03:18.634Z,100.00
2023-03-02T09:05:45.793Z,100.00
2023-03-02T09:08:13.357Z,100.00
2023-03-02T09:10:40.035Z,100.00
2023-03-02T09:13:08.554Z,100.00
2023-03-02T09:15:35.479Z,100.00
2023-03-02T09:18:02.033Z,100.00
2023-03-02T09:20:28.731Z,100.00
2023-03-02T09:22:55.402Z,100.00
2023-03-02T09:25:22.021Z,100.00
2023-03-02T09:27:48.707Z,100.00
2023-03-02T09:30:16.116Z,100.00
2023-03-02T09:32:43.053Z,100.00
2023-03-02T09:35:09.927Z,100.00
2023-03-02T09:37:38.755Z,100.00
2023-03-02T09:40:16.314Z,100.00
2023-03-02T09:43:03.840Z,100.00
2023-03-02T09:45:38.863Z,100.00
2023-03-02T09:48:16.871Z,100.00
2023-03-02T09:51:07.482Z,100.00
2023-03-02T09:53:42.065Z,100.00
2023-03-02T09:56:17.757Z,100.00
2023-03-02T09:58:52.136Z,100.00
2023-03-02T10:01:30.320Z,100.00
2023-03-02T10:04:05.546Z,100.00
2023-03-02T10:06:32.609Z,100.00
2023-03-02T10:08:59.632Z,100.00
2023-03-02T10:11:56.798Z,100.00
2023-03-02T10:14:34.282Z,100.00
2023-03-02T10:17:27.982Z,100.00
2023-03-02T10:20:03.034Z,100.00
2023-03-02T10:22:45.989Z,100.00
2023-03-02T10:25:58.330Z,100.00
2023-03-02T10:28:35.630Z,100.00
2023-03-02T10:31:12.831Z,100.00
2023-03-02T10:33:41.935Z,100.00
2023-03-02T10:36:28.366Z,100.00
2023-03-02T10:38:55.655Z,100.00
2023-03-02T10:42:03.572Z,100.00
2023-03-02T10:44:39.267Z,100.00
2023-03-02T10:47:07.649Z,100.00
2023-03-02T10:49:36.332Z,100.00
2023-03-02T10:52:06.782Z,97.36
2023-03-02T10:54:34.810Z,92.28
2023-03-02T10:57:21.541Z,93.79
2023-03-02T10:59:50.025Z,95.91
2023-03-02T11:02:18.643Z,96.93
2023-03-02T11:04:45.764Z,99.89
2023-03-02T11:07:18.697Z,99.02
2023-03-02T11:10:17.531Z,95.57
2023-03-02T11:12:47.327Z,90.49
2023-03-02T11:15:19.675Z,90.58
2023-03-02T11:17:50.820Z,90.03
2023-03-02T11:20:24.890Z,89.47
2023-03-02T11:23:05.896Z,83.95
2023-03-02T11:25:38.227Z,72.83
2023-03-02T11:28:36.027Z,51.54
2023-03-02T11:31:06.801Z,40.54
2023-03-02T11:34:18.134Z,34.94
2023-03-02T11:37:20.443Z,30.38
2023-03-02T11:40:17.444Z,27.26
2023-03-02T11:42:46.002Z,25.41
2023-03-02T11:45:17.530Z,25.18
2023-03-02T11:48:25.426Z,23.90
2023-03-02T11:51:02.172Z,22.66
2023-03-02T11:53:48.747Z,22.25
2023-03-02T11:56:16.155Z,21.49
2023-03-02T11:58:45.810Z,21.13
2023-03-02T12:01:25.404Z,20.56
2023-03-02T12:03:52.783Z,19.79
2023-03-02T12:06:22.332Z,19.39
2023-03-02T12:08:51.933Z,19.37
2023-03-02T12:11:18.510Z,18.63
2023-03-02T12:13:59.107Z,18.35
2023-03-02T12:16:42.570Z,17.54
2023-03-02T12:19:18.184Z,17.98
2023-03-02T12:22:13.588Z,17.64
2023-03-02T12:24:45.094Z,17.02
2023-03-02T12:27:20.841Z,17.80
2023-03-02T12:29:57.199Z,17.35
2023-03-02T12:32:28.260Z,16.13
2023-03-02T12:35:03.885Z,15.25
2023-03-02T12:37:47.572Z,16.26
2023-03-02T12:40:42.096Z,16.54
2023-03-02T12:43:32.390Z,16.37
2023-03-02T12:46:11.128Z,16.48
2023-03-02T12:48:48.711Z,15.59
2023-03-02T12:51:22.510Z,15.71
2023-03-02T12:53:50.456Z,16.13
2023-03-02T12:56:24.896Z,15.98
2023-03-02T12:58:52.744Z,15.60
2023-03-02T13:01:25.656Z,16.20
2023-03-02T13:03:53.635Z,14.87
2023-03-02T13:06:21.851Z,14.70
2023-03-02T13:08:51.453Z,14.96
2023-03-02T13:11:36.240Z,15.01
2023-03-02T13:14:27.573Z,15.06
2023-03-02T13:17:00.040Z,13.95
2023-03-02T13:19:27.459Z,14.84
2023-03-02T13:21:54.123Z,14.35
2023-03-02T13:24:45.231Z,15.23
2023-03-02T13:27:18.916Z,14.63
2023-03-02T13:29:45.826Z,15.06
2023-03-02T13:32:26.740Z,15.06
2023-03-02T13:34:58.024Z,15.14
2023-03-02T13:37:43.998Z,15.20
2023-03-02T13:40:22.691Z,15.60
2023-03-02T13:42:49.610Z,15.28
2023-03-02T13:45:27.927Z,15.83
2023-03-02T13:47:56.496Z,15.77
2023-03-02T13:50:28.579Z,15.62
2023-03-02T13:52:57.681Z,16.01
2023-03-02T13:55:24.651Z,15.96
2023-03-02T13:57:53.328Z,16.23
2023-03-02T14:00:26.727Z,16.74
2023-03-02T14:02:53.313Z,16.38
2023-03-02T14:05:23.100Z,17.04
2023-03-02T14:07:50.048Z,17.74
2023-03-02T14:10:18.404Z,17.91
2023-03-02T14:13:01.210Z,17.44
2023-03-02T14:15:28.015Z,17.11
2023-03-02T14:17:54.717Z,18.62
2023-03-02T14:20:21.361Z,19.67
2023-03-02T14:22:48.470Z,19.74
2023-03-02T14:25:15.407Z,19.80
2023-03-02T14:27:43.281Z,19.22
2023-03-02T14:30:16.702Z,19.84
2023-03-02T14:32:43.393Z,20.39
2023-03-02T14:35:15.804Z,21.96
2023-03-02T14:37:48.368Z,23.86
2023-03-02T14:40:27.484Z,23.69
2023-03-02T14:42:54.636Z,24.59
2023-03-02T14:45:21.647Z,27.11
2023-03-02T14:47:48.867Z,30.02
2023-03-02T14:50:16.971Z,31.66
2023-03-02T14:52:48.135Z,34.48
2023-03-02T14:55:25.889Z,37.38
2023-03-02T14:58:20.160Z,39.04
2023-03-02T15:00:47.520Z,41.11
2023-03-02T15:03:25.510Z,42.78
2023-03-02T15:06:00.903Z,44.59
2023-03-02T15:08:29.297Z,46.43
2023-03-02T15:10:56.157Z,47.40
2023-03-02T15:13:22.696Z,49.76
2023-03-02T15:15:50.116Z,51.21
2023-03-02T15:18:19.656Z,52.09
2023-03-02T15:20:46.472Z,53.90
2023-03-02T15:23:13.078Z,55.46
2023-03-02T15:25:39.677Z,56.02
2023-03-02T15:28:06.207Z,57.52
2023-03-02T15:30:32.925Z,59.01
2023-03-02T15:32:59.551Z,60.59
2023-03-02T15:35:28.005Z,61.17
2023-03-02T15:37:58.144Z,63.12
2023-03-02T15:40:25.703Z,64.82
2023-03-02T15:42:53.085Z,65.16
2023-03-02T15:45:19.678Z,65.95
2023-03-02T15:47:46.195Z,67.91
2023-03-02T15:50:12.733Z,69.94
2023-03-02T15:52:39.361Z,72.39
2023-03-02T15:55:06.049Z,74.59
2023-03-02T15:57:37.133Z,77.21
2023-03-02T16:00:05.393Z,79.52
2023-03-02T16:02:31.999Z,79.23
2023-03-02T16:04:58.550Z,80.16
2023-03-02T16:07:25.175Z,80.99
2023-03-02T16:09:52.053Z,82.64
2023-03-02T16:12:20.862Z,83.48
2023-03-02T16:14:47.411Z,84.23
2023-03-02T16:17:13.931Z,84.71
2023-03-02T16:19:40.504Z,85.63
2023-03-02T16:22:07.059Z,87.52
2023-03-02T16:24:33.593Z,89.15
2023-03-02T16:27:00.183Z,90.97
2023-03-02T16:29:26.877Z,92.75
2023-03-02T16:31:53.572Z,95.13
2023-03-02T16:34:20.382Z,97.58
2023-03-02T16:36:47.158Z,98.73
2023-03-02T16:39:14.564Z,99.75
2023-03-02T16:41:43.148Z,100.00
2023-03-02T16:44:13.424Z,100.00
2023-03-02T16:46:43.293Z,100.00
2023-03-02T16:49:11.506Z,100.00
2023-03-02T16:51:38.727Z,100.00
2023-03-02T16:54:05.681Z,100.00
2023-03-02T16:56:32.359Z,100.00
2023-03-02T16:59:00.192Z,100.00
2023-03-02T17:01:28.009Z,100.00
2023-03-02T17:03:54.640Z,100.00
2023-03-02T17:06:23.708Z,100.00
2023-03-02T17:08:51.297Z,100.00
2023-03-02T17:11:19.047Z,100.00
2023-03-02T17:13:46.128Z,100.00
2023-03-02T17:16:13.534Z,100.00
2023-03-02T17:18:41.066Z,100.00
2023-03-02T17:21:08.312Z,100.00
2023-03-02T17:23:34.926Z,100.00
2023-03-02T17:26:01.494Z,100.00
2023-03-02T17:28:28.219Z,100.00
2023-03-02T17:30:54.891Z,100.00
2023-03-02T17:33:21.677Z,100.00
2023-03-02T17:35:48.322Z,100.00
2023-03-02T17:38:15.823Z,100.00
2023-03-02T17:40:42.816Z,100.00
2023-03-02T17:43:09.591Z,100.00
2023-03-02T17:45:36.168Z,100.00
2023-03-02T17:48:02.872Z,100.00
2023-03-02T17:50:33.096Z,100.00
2023-03-02T17:52:59.995Z,100.00
2023-03-02T17:55:27.034Z,100.00
2023-03-02T17:57:53.763Z,100.00
2023-03-02T18:00:23.052Z,100.00
2023-03-02T18:02:50.844Z,100.00
2023-03-02T18:05:17.552Z,100.00
2023-03-02T18:07:44.192Z,100.00
2023-03-02T18:10:11.664Z,100.00
2023-03-02T18:12:38.311Z,100.00
2023-03-02T18:15:05.589Z,100.00
2023-03-02T18:17:32.182Z,100.00
2023-03-02T18:19:58.772Z,100.00
2023-03-02T18:22:25.312Z,100.00
2023-03-02T18:24:53.013Z,100.00
2023-03-02T18:27:20.201Z,100.00
2023-03-02T18:29:46.786Z,100.00
2023-03-02T18:32:13.643Z,100.00
2023-03-02T18:34:40.564Z,100.00
2023-03-02T18:37:07.409Z,100.00
2023-03-02T18:39:34.357Z,100.00
2023-03-02T18:42:01.001Z,100.00
2023-03-02T18:44:28.410Z,100.00
2023-03-02T18:46:55.551Z,100.00
2023-03-02T18:49:22.409Z,100.00
2023-03-02T18:51:48.998Z,100.00
2023-03-02T18:54:15.553Z,100.00
2023-03-02T18:56:42.189Z,100.00
2023-03-02T18:59:09.597Z,100.00
2023-03-02T19:01:36.391Z,100.00
2023-03-02T19:04:04.881Z,100.00
2023-03-02T19:06:32.805Z,100.00
2023-03-02T19:08:59.378Z,100.00
2023-03-02T19:11:26.095Z,100.00
2023-03-02T19:13:52.672Z,100.00
2023-03-02T19:16:19.325Z,100.00
2023-03-02T19:18:45.979Z,100.00
2023-03-02T19:21:12.520Z,100.00
2023-03-02T19:23:39.438Z,100.00
2023-03-02T19:26:06.828Z,100.00
2023-03-02T19:28:34.450Z,100.00
2023-03-02T19:31:06.796Z,100.00
2023-03-02T19:33:33.571Z,100.00
2023-03-02T19:36:00.358Z,100.00
2023-03-02T19:38:29.143Z,100.00
2023-03-02T19:40:57.926Z,100.00
2023-03-02T19:43:26.299Z,100.00
2023-03-02T19:45:53.186Z,100.00
2023-03-02T19:48:20.051Z,100.00
2023-03-02T19:50:46.799Z,100.00
2023-03-02T19:53:13.612Z,100.00
2023-03-02T19:55:42.676Z,100.00
2023-03-02T19:58:11.194Z,100.00
2023-03-02T20:00:38.827Z,100.00
2023-03-02T20:03:06.285Z,100.00
2023-03-02T20:05:32.995Z,100.00
2023-03-02T20:07:59.570Z,100.00
2023-03-02T20:10:31.614Z,100.00
2023-03-02T20:12:59.604Z,100.00
2023-03-02T20:15:28.024Z,100.00
2023-03-02T20:17:54.669Z,100.00
2023-03-02T20:20:21.963Z,100.00
2023-03-02T20:22:49.589Z,100.00
2023-03-02T20:25:16.514Z,100.00
2023-03-02T20:27:43.212Z,100.00
2023-03-02T20:30:13.696Z,100.00
2023-03-02T20:32:40.800Z,100.00
2023-03-02T20:35:08.034Z,100.00
2023-03-02T20:37:34.896Z,100.00
2023-03-02T20:40:01.911Z,100.00
2023-03-02T20:42:31.188Z,100.00
2023-03-02T20:44:59.467Z,100.00
2023-03-02T20:47:26.156Z,100.00
2023-03-02T20:49:52.818Z,100.00
2023-03-02T20:52:19.407Z,100.00
2023-03-02T20:54:46.008Z,100.00
2023-03-02T20:57:15.959Z,100.00
2023-03-02T20:59:45.904Z,100.00
2023-03-02T21:02:18.306Z,100.00
2023-03-02T21:04:45.566Z,100.00
2023-03-02T21:07:12.969Z,100.00
2023-03-02T21:09:40.441Z,100.00
2023-03-02T21:12:08.954Z,100.00
2023-03-02T21:14:35.653Z,100.00
2023-03-02T21:17:02.864Z,100.00
2023-03-02T21:19:30.285Z,100.00
2023-03-02T21:21:57.720Z,100.00
2023-03-02T21:24:24.792Z,100.00
2023-03-02T21:26:53.065Z,100.00
2023-03-02T21:29:21.881Z,100.00
2023-03-02T21:31:48.668Z,100.00
2023-03-02T21:34:16.055Z,100.00
2023-03-02T21:36:43.419Z,100.00
2023-03-02T21:39:11.774Z,100.00
2023-03-02T21:41:38.549Z,100.00
2023-03-02T21:44:05.683Z,100.00
2023-03-02T21:46:34.461Z,100.00
2023-03-02T21:49:01.048Z,100.00
2023-03-02T21:51:27.892Z,100.00
2023-03-02T21:53:54.423Z,100.00
2023-03-02T21:56:24.461Z,100.00
2023-03-02T21:58:53.704Z,100.00
2023-03-02T22:01:21.101Z,100.00
2023-03-02T22:03:48.187Z,100.00
2023-03-02T22:06:25.982Z,100.00
2023-03-02T22:08:53.625Z,100.00
2023-03-02T22:11:25.681Z,100.00
2023-03-02T22:13:55.264Z,100.00
2023-03-02T22:16:28.258Z,100.00
2023-03-02T22:18:59.897Z,100.00
2023-03-02T22:21:43.486Z,100.00
2023-03-02T22:24:18.458Z,100.00
2023-03-02T22:27:17.046Z,100.00
2023-03-02T22:29:45.997Z,100.00
2023-03-02T22:32:24.618Z,100.00
2023-03-02T22:34:53.815Z,100.00
2023-03-02T22:37:26.513Z,100.00
2023-03-02T22:40:00.855Z,100.00
2023-03-02T22:42:30.608Z,100.00
2023-03-02T22:45:10.077Z,100.00
2023-03-02T22:47:36.674Z,100.00
2023-03-02T22:50:29.224Z,100.00
2023-03-02T22:52:59.067Z,100.00
2023-03-02T22:55:39.328Z,100.00
2023-03-02T22:58:40.320Z,100.00
2023-03-02T23:01:23.353Z,100.00
2023-03-02T23:03:52.938Z,100.00
2023-03-02T23:06:37.064Z,100.00
2023-03-02T23:09:06.265Z,100.00
2023-03-02T23:11:41.245Z,100.00
2023-03-02T23:14:43.736Z,100.00
2023-03-02T23:17:22.537Z,100.00
2023-03-02T23:19:50.726Z,100.00
2023-03-02T23:22:17.841Z,100.00
2023-03-02T23:24:44.551Z,100.00
2023-03-02T23:27:11.410Z,100.00
2023-03-02T23:29:38.054Z,100.00
2023-03-02T23:32:04.883Z,100.00
2023-03-02T23:34:31.703Z,100.00
2023-03-02T23:36:59.304Z,100.00
2023-03-02T23:39:26.089Z,100.00
2023-03-02T23:41:52.994Z,100.00
2023-03-02T23:44:19.933Z,100.00
2023-03-02T23:46:47.480Z,100.00
2023-03-02T23:49:14.519Z,100.00
2023-03-02T23:51:41.212Z,100.00
2023-03-02T23:54:08.007Z,100.00
2023-03-02T23:56:35.183Z,100.00
2023-03-02T23:59:02.390Z,100.00
